Bei Facebook empfehlenBei Twitter postenGoogle plusPinterest

Das Wetter im Erzgebirge am 15.07.2016

Wetter und Klima am 15.07.2016 Holzhau im Erzgebirge (630m ü.NN)
Letzte gemessene Temperatur und Uhrzeit der Messung23:45:00 Uhr8.10 °C
Temperatur (Maximum / Höchstwert) und Uhrzeit der Messung15:45:00 Uhr14.80 °C
Temperatur (Minimum / Tiefstwert) und Uhrzeit der Messung23:45:008.10 °C
Errechneter Absolutwert der Temperaturschwankungen zwischen Tmin und Tmax des Tages6.70 K
Errechnete Tagesmitteltemperatur10.97292 °C
Gesamt - Niederschlag des Tages (in flüssiger Form)3.10 Liter / m²
Luftdruck (Maximum / Höchstwert) und Zeitpunkt der Messung23:45:00 Uhr1022.60 hPa
Luftdruck (Minimum / Tiefstwert) und Zeitpunkt der Messung00:00:00 Uhr1014.80 hPa
Errechneter Absolutwert der Luftdruckschwankungen des Tages7.80 hPa
Höchste gemessene Windgeschwindigkeit und Uhrzeit der Messung23:45:00 Uhr0.00 km/h
Errechnete Windhäufigkeit in Relation zu den Messwerten des Tages0.00000 %
Niedrigste Windkühle (Windchill) und Zeitpunkt der Messung23:45:00 Uhr8.10 °C
Taupunkt (Maximum / Höchstwert) und Uhrzeit der Messung14:00:00 Uhr13.20 °C
Taupunkt (Minimum / Tiefstwert) und Uhrzeit der Messung23:45:006.90 °C
Anzahl der automatisch eingelesenen Messwerte 96

Detaillierte Wetter- und Klima- Messwerte für den 15.07.2016 in Holzhau im Erzgebirge (630m ü.NN)
ZeitTemperaturLuftdruckRel. LuftfeuchteWindWindrichtungWindchillTaupunktNiederschlag l/m²
23:45:008.10 °C1022.60 hPa92.00 %6.90 °C3.10
23:30:008.40 °C1022.30 hPa91.00 %7.00 °C3.10
23:15:008.70 °C1022.30 hPa91.00 %7.30 °C3.10
23:00:009.10 °C1022.00 hPa91.00 %7.70 °C3.10
22:45:009.40 °C1022.10 hPa91.00 %8.00 °C3.10
22:30:009.60 °C1021.90 hPa91.00 %8.20 °C3.10
22:15:009.90 °C1021.80 hPa90.00 %8.30 °C3.10
22:00:0010.00 °C1021.80 hPa90.00 %8.40 °C3.10
21:45:0010.20 °C1021.60 hPa89.00 %8.50 °C3.10
21:30:0010.60 °C1021.20 hPa88.00 %8.70 °C3.10
21:15:0011.10 °C1021.30 hPa87.00 %9.00 °C3.10
21:00:0011.60 °C1021.20 hPa87.00 %9.50 °C3.10
20:45:0012.10 °C1021.10 hPa87.00 %10.00 °C3.10
20:30:0012.50 °C1021.20 hPa87.00 %10.40 °C3.10
20:15:0012.80 °C1021.00 hPa87.00 %10.70 °C3.10
20:00:0012.90 °C1020.80 hPa88.00 %11.00 °C3.10
19:45:0012.90 °C1020.80 hPa88.00 %11.00 °C3.10
19:30:0012.70 °C1021.00 hPa88.00 %10.80 °C3.10
19:15:0012.60 °C1021.00 hPa88.00 %10.70 °C3.10
19:00:0012.50 °C1020.80 hPa87.00 %10.40 °C3.10
18:45:0012.80 °C1021.00 hPa88.00 %10.90 °C3.10
18:30:0012.80 °C1020.70 hPa88.00 %10.90 °C3.10
18:15:0012.80 °C1021.00 hPa89.00 %11.00 °C3.10
18:00:0012.50 °C1021.10 hPa89.00 %10.70 °C3.10
17:45:0012.20 °C1021.00 hPa88.00 %10.30 °C3.10
17:30:0011.90 °C1021.00 hPa87.00 %9.80 °C3.10
17:15:0012.60 °C1021.10 hPa84.00 %10.00 °C3.10
17:00:0013.30 °C1021.10 hPa85.00 %10.80 °C3.10
16:45:0013.90 °C1020.90 hPa84.00 %11.20 °C3.10
16:30:0013.90 °C1021.10 hPa85.00 %11.40 °C3.10
16:15:0013.70 °C1021.00 hPa83.00 %10.90 °C3.10
16:00:0014.60 °C1020.90 hPa84.00 %11.90 °C3.10
15:45:0014.80 °C1020.50 hPa84.00 %12.10 °C3.10
15:30:0014.10 °C1020.50 hPa86.00 %11.80 °C3.10
15:15:0013.40 °C1020.70 hPa86.00 %11.10 °C3.10
15:00:0014.00 °C1020.70 hPa86.00 %11.70 °C3.10
14:45:0014.40 °C1020.60 hPa86.00 %12.10 °C3.10
14:30:0014.70 °C1020.60 hPa89.00 %12.90 °C3.10
14:15:0014.40 °C1020.60 hPa90.00 %12.80 °C3.10
14:00:0014.50 °C1020.30 hPa92.00 %13.20 °C3.10
13:45:0014.10 °C1020.10 hPa93.00 %13.00 °C3.10
13:30:0013.90 °C1020.10 hPa94.00 %13.00 °C3.10
13:15:0012.90 °C1020.10 hPa94.00 %12.00 °C3.10
13:00:0013.50 °C1020.10 hPa95.00 %12.70 °C3.10
12:45:0013.30 °C1020.00 hPa95.00 %12.50 °C3.10
12:30:0012.90 °C1019.80 hPa96.00 %12.30 °C3.10
12:15:0011.60 °C1019.90 hPa96.00 %11.00 °C3.10
12:00:0010.60 °C1019.80 hPa96.00 %10.00 °C3.10
11:45:0010.60 °C1019.60 hPa96.00 %10.00 °C3.10
11:30:0011.00 °C1019.60 hPa96.00 %10.40 °C2.59
11:15:0010.50 °C1019.60 hPa96.00 %9.90 °C2.59
11:00:009.90 °C1019.40 hPa96.00 %9.30 °C2.59
10:45:009.80 °C1019.30 hPa96.00 %9.20 °C2.59
10:30:009.80 °C1019.20 hPa96.00 %9.20 °C2.59
10:15:009.60 °C1018.90 hPa96.00 %9.00 °C2.59
10:00:009.50 °C1018.80 hPa96.00 %8.90 °C2.59
09:45:009.40 °C1018.50 hPa96.00 %8.80 °C2.07
09:30:009.30 °C1018.50 hPa96.00 %8.70 °C2.07
09:15:009.30 °C1018.00 hPa96.00 %8.70 °C2.07
09:00:009.40 °C1017.90 hPa96.00 %8.80 °C2.07
08:45:009.40 °C1017.60 hPa96.00 %8.80 °C1.55
08:30:009.40 °C1017.50 hPa96.00 %8.80 °C1.55
08:15:009.40 °C1017.20 hPa96.00 %8.80 °C1.55
08:00:009.30 °C1017.40 hPa96.00 %8.70 °C1.03
07:45:009.40 °C1017.10 hPa96.00 %8.80 °C1.03
07:30:009.50 °C1016.90 hPa96.00 %8.90 °C1.03
07:15:009.50 °C1016.90 hPa96.00 %8.90 °C1.03
07:00:009.50 °C1017.00 hPa96.00 %8.90 °C1.03
06:45:009.50 °C1016.80 hPa95.00 %8.70 °C1.03
06:30:009.50 °C1016.70 hPa95.00 %8.70 °C1.03
06:15:009.50 °C1016.60 hPa95.00 %8.70 °C1.03
06:00:009.50 °C1016.30 hPa95.00 %8.70 °C1.03
05:45:009.50 °C1016.10 hPa95.00 %8.70 °C1.03
05:30:009.50 °C1016.10 hPa95.00 %8.70 °C1.03
05:15:009.50 °C1016.10 hPa95.00 %8.70 °C1.03
05:00:009.60 °C1016.00 hPa95.00 %8.80 °C1.03
04:45:009.60 °C1015.90 hPa95.00 %8.80 °C1.03
04:30:009.60 °C1015.90 hPa95.00 %8.80 °C1.03
04:15:009.60 °C1015.80 hPa95.00 %8.80 °C1.03
04:00:009.60 °C1015.80 hPa95.00 %8.80 °C1.03
03:45:009.60 °C1015.90 hPa94.00 %8.70 °C1.03
03:30:009.60 °C1015.80 hPa94.00 %8.70 °C1.03
03:15:009.60 °C1015.70 hPa94.00 %8.70 °C1.03
03:00:009.60 °C1015.60 hPa94.00 %8.70 °C0.51
02:45:009.60 °C1015.50 hPa94.00 %8.70 °C0.51
02:30:009.50 °C1015.40 hPa94.00 %8.60 °C0.51
02:15:009.50 °C1015.40 hPa94.00 %8.60 °C 
02:00:009.60 °C1015.50 hPa94.00 %8.70 °C 
01:45:009.70 °C1015.40 hPa94.00 %8.80 °C 
01:30:009.80 °C1015.30 hPa94.00 %8.90 °C 
01:15:009.60 °C1015.10 hPa94.00 %8.70 °C 
01:00:009.50 °C1015.10 hPa94.00 %8.60 °C 
00:45:009.50 °C1015.10 hPa94.00 %8.60 °C 
00:30:009.70 °C1014.90 hPa94.00 %8.80 °C 
00:15:009.70 °C1014.90 hPa94.00 %8.80 °C 
00:00:009.50 °C1014.80 hPa94.00 %8.60 °C 

Permanenter Link zu dieser Seite: Wetter im Erzgebirge am 15.07.2016
Performance-Info: Die Erstellung der Seite / Statistik(en) / Tabelle(n) erforderte 5 Datenbankserver-Abfrage(n) und dauerte 101 Millisekunden. (Dieser Messwert ist von der Gesamt-Auslastung des Servers abhängig.)
Erzgebirge - Wetter | Erzgebirge - Wetter (Mobilgeräte) | Komplette Klimadatenbank